sensor_id;sensor_type;location;lat;lon;timestamp;pressure;altitude;pressure_sealevel;temperature;humidity
29461;BME280;16428;47.836;35.106;2022-08-21T00:01:57;100846.25;;;23.23;100.00
29461;BME280;16428;47.836;35.106;2022-08-21T00:04:26;100842.91;;;23.15;100.00
29461;BME280;16428;47.836;35.106;2022-08-21T00:06:59;100841.81;;;23.17;100.00
29461;BME280;16428;47.836;35.106;2022-08-21T00:09:28;100851.78;;;23.01;100.00
29461;BME280;16428;47.836;35.106;2022-08-21T00:11:56;100838.69;;;23.08;100.00
29461;BME280;16428;47.836;35.106;2022-08-21T00:14:25;100839.22;;;22.83;100.00
29461;BME280;16428;47.836;35.106;2022-08-21T00:16:58;100839.16;;;22.78;100.00
29461;BME280;16428;47.836;35.106;2022-08-21T00:19:28;100841.91;;;22.78;100.00
29461;BME280;16428;47.836;35.106;2022-08-21T00:24:39;100851.03;;;23.05;100.00
29461;BME280;16428;47.836;35.106;2022-08-21T00:27:08;100847.81;;;22.92;100.00
29461;BME280;16428;47.836;35.106;2022-08-21T00:29:36;100853.00;;;22.88;100.00
29461;BME280;16428;47.836;35.106;2022-08-21T00:32:05;100835.09;;;23.02;100.00
29461;BME280;16428;47.836;35.106;2022-08-21T00:34:34;100839.81;;;22.85;100.00
29461;BME280;16428;47.836;35.106;2022-08-21T00:37:02;100831.19;;;22.98;100.00
29461;BME280;16428;47.836;35.106;2022-08-21T00:39:31;100832.84;;;22.77;100.00
29461;BME280;16428;47.836;35.106;2022-08-21T00:41:58;100828.84;;;22.85;100.00
29461;BME280;16428;47.836;35.106;2022-08-21T00:44:27;100832.31;;;22.59;100.00
29461;BME280;16428;47.836;35.106;2022-08-21T00:46:55;100838.16;;;22.84;100.00
29461;BME280;16428;47.836;35.106;2022-08-21T00:49:24;100839.59;;;22.70;100.00
29461;BME280;16428;47.836;35.106;2022-08-21T00:51:57;100837.19;;;22.95;100.00
29461;BME280;16428;47.836;35.106;2022-08-21T00:54:30;100842.97;;;22.99;100.00
29461;BME280;16428;47.836;35.106;2022-08-21T00:57:03;100837.06;;;22.85;100.00
29461;BME280;16428;47.836;35.106;2022-08-21T00:59:36;100826.47;;;22.72;100.00
29461;BME280;16428;47.836;35.106;2022-08-21T01:02:07;100824.88;;;22.98;100.00
29461;BME280;16428;47.836;35.106;2022-08-21T01:04:36;100824.78;;;22.88;100.00
29461;BME280;16428;47.836;35.106;2022-08-21T01:07:05;100818.41;;;22.82;100.00
29461;BME280;16428;47.836;35.106;2022-08-21T01:09:34;100817.19;;;22.73;100.00
29461;BME280;16428;47.836;35.106;2022-08-21T01:12:04;100821.16;;;22.43;100.00
29461;BME280;16428;47.836;35.106;2022-08-21T01:14:32;100812.16;;;22.48;100.00
29461;BME280;16428;47.836;35.106;2022-08-21T01:17:02;100817.81;;;22.80;100.00
29461;BME280;16428;47.836;35.106;2022-08-21T01:19:31;100817.47;;;22.55;100.00
29461;BME280;16428;47.836;35.106;2022-08-21T01:22:00;100819.34;;;22.71;100.00
29461;BME280;16428;47.836;35.106;2022-08-21T01:24:28;100813.81;;;22.88;100.00
29461;BME280;16428;47.836;35.106;2022-08-21T01:26:56;100818.06;;;22.78;100.00
29461;BME280;16428;47.836;35.106;2022-08-21T01:29:42;100805.53;;;22.61;100.00
29461;BME280;16428;47.836;35.106;2022-08-21T01:32:14;100798.81;;;22.52;100.00
29461;BME280;16428;47.836;35.106;2022-08-21T01:34:47;100798.22;;;22.50;100.00
29461;BME280;16428;47.836;35.106;2022-08-21T01:37:17;100794.28;;;22.40;100.00
29461;BME280;16428;47.836;35.106;2022-08-21T01:39:48;100788.25;;;22.38;100.00
29461;BME280;16428;47.836;35.106;2022-08-21T01:42:17;100796.78;;;22.42;100.00
29461;BME280;16428;47.836;35.106;2022-08-21T01:44:46;100797.94;;;22.68;100.00
29461;BME280;16428;47.836;35.106;2022-08-21T01:47:15;100795.50;;;22.50;100.00
29461;BME280;16428;47.836;35.106;2022-08-21T01:49:45;100800.47;;;22.53;100.00
29461;BME280;16428;47.836;35.106;2022-08-21T01:52:14;100796.44;;;22.38;100.00
29461;BME280;16428;47.836;35.106;2022-08-21T01:54:43;100803.72;;;22.50;100.00
29461;BME280;16428;47.836;35.106;2022-08-21T01:57:12;100804.41;;;22.62;100.00
29461;BME280;16428;47.836;35.106;2022-08-21T01:59:41;100813.84;;;22.49;100.00
29461;BME280;16428;47.836;35.106;2022-08-21T02:02:10;100813.09;;;22.54;100.00
29461;BME280;16428;47.836;35.106;2022-08-21T02:04:39;100811.88;;;22.44;100.00
29461;BME280;16428;47.836;35.106;2022-08-21T02:07:07;100805.19;;;22.57;100.00
29461;BME280;16428;47.836;35.106;2022-08-21T02:09:37;100810.84;;;22.89;99.66
29461;BME280;16428;47.836;35.106;2022-08-21T02:12:07;100807.09;;;22.57;99.93
29461;BME280;16428;47.836;35.106;2022-08-21T02:14:37;100808.94;;;22.29;100.00
29461;BME280;16428;47.836;35.106;2022-08-21T02:17:05;100816.66;;;21.99;100.00
29461;BME280;16428;47.836;35.106;2022-08-21T02:19:37;100813.31;;;21.97;100.00
29461;BME280;16428;47.836;35.106;2022-08-21T02:22:09;100818.34;;;22.38;100.00
29461;BME280;16428;47.836;35.106;2022-08-21T02:24:38;100812.56;;;22.57;100.00
29461;BME280;16428;47.836;35.106;2022-08-21T02:27:24;100817.66;;;22.48;100.00
29461;BME280;16428;47.836;35.106;2022-08-21T02:29:55;100811.84;;;22.06;100.00
29461;BME280;16428;47.836;35.106;2022-08-21T02:32:25;100814.31;;;22.24;100.00
29461;BME280;16428;47.836;35.106;2022-08-21T02:34:53;100813.84;;;22.10;100.00
29461;BME280;16428;47.836;35.106;2022-08-21T02:37:23;100818.63;;;22.20;100.00
29461;BME280;16428;47.836;35.106;2022-08-21T02:39:53;100821.81;;;22.12;100.00
29461;BME280;16428;47.836;35.106;2022-08-21T02:42:21;100821.22;;;22.49;100.00
29461;BME280;16428;47.836;35.106;2022-08-21T02:44:51;100821.66;;;22.79;100.00
29461;BME280;16428;47.836;35.106;2022-08-21T02:47:19;100821.72;;;22.84;100.00
29461;BME280;16428;47.836;35.106;2022-08-21T02:49:47;100832.53;;;22.35;100.00
29461;BME280;16428;47.836;35.106;2022-08-21T02:52:16;100832.97;;;22.27;100.00
29461;BME280;16428;47.836;35.106;2022-08-21T02:54:44;100839.78;;;22.46;100.00
29461;BME280;16428;47.836;35.106;2022-08-21T02:57:13;100839.78;;;22.46;100.00
29461;BME280;16428;47.836;35.106;2022-08-21T02:59:41;100837.63;;;22.49;100.00
29461;BME280;16428;47.836;35.106;2022-08-21T03:02:10;100850.75;;;22.46;100.00
29461;BME280;16428;47.836;35.106;2022-08-21T03:04:39;100846.88;;;22.42;100.00
29461;BME280;16428;47.836;35.106;2022-08-21T03:07:13;100847.47;;;22.44;100.00
29461;BME280;16428;47.836;35.106;2022-08-21T03:09:42;100856.09;;;22.36;100.00
29461;BME280;16428;47.836;35.106;2022-08-21T03:12:24;100868.69;;;22.37;100.00
29461;BME280;16428;47.836;35.106;2022-08-21T03:14:57;100863.22;;;22.37;100.00
29461;BME280;16428;47.836;35.106;2022-08-21T03:17:26;100862.16;;;22.05;100.00
29461;BME280;16428;47.836;35.106;2022-08-21T03:19:57;100873.34;;;22.20;100.00
29461;BME280;16428;47.836;35.106;2022-08-21T03:22:26;100864.56;;;22.18;100.00
29461;BME280;16428;47.836;35.106;2022-08-21T03:24:57;100865.38;;;22.19;100.00
29461;BME280;16428;47.836;35.106;2022-08-21T03:27:27;100865.72;;;22.22;100.00
29461;BME280;16428;47.836;35.106;2022-08-21T03:29:57;100870.94;;;22.07;100.00
29461;BME280;16428;47.836;35.106;2022-08-21T03:32:26;100862.56;;;21.97;100.00
29461;BME280;16428;47.836;35.106;2022-08-21T03:34:54;100860.41;;;21.99;100.00
29461;BME280;16428;47.836;35.106;2022-08-21T03:37:24;100855.25;;;21.86;100.00
29461;BME280;16428;47.836;35.106;2022-08-21T03:39:52;100863.06;;;21.94;100.00
29461;BME280;16428;47.836;35.106;2022-08-21T03:42:20;100870.81;;;21.85;100.00
29461;BME280;16428;47.836;35.106;2022-08-21T03:44:49;100860.22;;;21.72;100.00
29461;BME280;16428;47.836;35.106;2022-08-21T03:47:18;100862.88;;;21.84;100.00
29461;BME280;16428;47.836;35.106;2022-08-21T03:49:47;100864.41;;;21.46;100.00
29461;BME280;16428;47.836;35.106;2022-08-21T03:52:16;100865.13;;;21.41;100.00
29461;BME280;16428;47.836;35.106;2022-08-21T03:54:45;100861.38;;;21.93;100.00
29461;BME280;16428;47.836;35.106;2022-08-21T03:57:14;100864.59;;;21.73;100.00
29461;BME280;16428;47.836;35.106;2022-08-21T03:59:41;100857.31;;;21.79;100.00
29461;BME280;16428;47.836;35.106;2022-08-21T04:02:13;100854.75;;;21.89;100.00
29461;BME280;16428;47.836;35.106;2022-08-21T04:04:45;100856.25;;;21.96;100.00
29461;BME280;16428;47.836;35.106;2022-08-21T04:07:13;100864.91;;;22.22;100.00
29461;BME280;16428;47.836;35.106;2022-08-21T04:09:42;100863.56;;;22.41;100.00
29461;BME280;16428;47.836;35.106;2022-08-21T04:12:10;100873.13;;;22.60;99.27
29461;BME280;16428;47.836;35.106;2022-08-21T04:14:37;100876.56;;;22.34;100.00
29461;BME280;16428;47.836;35.106;2022-08-21T04:17:06;100879.16;;;22.07;100.00
29461;BME280;16428;47.836;35.106;2022-08-21T04:19:35;100879.56;;;22.32;100.00
29461;BME280;16428;47.836;35.106;2022-08-21T04:22:04;100872.19;;;22.16;100.00
29461;BME280;16428;47.836;35.106;2022-08-21T04:24:34;100879.38;;;21.89;100.00
29461;BME280;16428;47.836;35.106;2022-08-21T04:27:03;100884.22;;;22.15;100.00
29461;BME280;16428;47.836;35.106;2022-08-21T04:29:32;100869.16;;;21.67;100.00
29461;BME280;16428;47.836;35.106;2022-08-21T04:32:06;100873.00;;;22.17;100.00
29461;BME280;16428;47.836;35.106;2022-08-21T04:34:35;100877.84;;;22.26;100.00
29461;BME280;16428;47.836;35.106;2022-08-21T04:37:03;100865.78;;;22.44;100.00
29461;BME280;16428;47.836;35.106;2022-08-21T04:39:33;100868.34;;;22.51;100.00
29461;BME280;16428;47.836;35.106;2022-08-21T04:42:02;100868.78;;;22.42;99.55
29461;BME280;16428;47.836;35.106;2022-08-21T04:44:33;100872.16;;;22.50;100.00
29461;BME280;16428;47.836;35.106;2022-08-21T04:47:02;100862.22;;;22.43;100.00
29461;BME280;16428;47.836;35.106;2022-08-21T04:49:31;100867.84;;;22.54;99.87
29461;BME280;16428;47.836;35.106;2022-08-21T04:52:02;100860.41;;;22.32;100.00
29461;BME280;16428;47.836;35.106;2022-08-21T04:54:30;100859.25;;;22.28;100.00
29461;BME280;16428;47.836;35.106;2022-08-21T04:57:06;100846.78;;;22.37;100.00
29461;BME280;16428;47.836;35.106;2022-08-21T04:59:43;100851.09;;;22.33;100.00
29461;BME280;16428;47.836;35.106;2022-08-21T05:02:13;100854.63;;;22.29;100.00
29461;BME280;16428;47.836;35.106;2022-08-21T05:04:47;100847.28;;;22.34;100.00
29461;BME280;16428;47.836;35.106;2022-08-21T05:07:29;100855.34;;;22.24;100.00
29461;BME280;16428;47.836;35.106;2022-08-21T05:10:10;100846.47;;;22.17;100.00
29461;BME280;16428;47.836;35.106;2022-08-21T05:12:43;100849.91;;;22.07;100.00
29461;BME280;16428;47.836;35.106;2022-08-21T05:15:12;100840.19;;;22.00;100.00
29461;BME280;16428;47.836;35.106;2022-08-21T05:17:41;100850.22;;;22.11;100.00
29461;BME280;16428;47.836;35.106;2022-08-21T05:20:11;100839.66;;;22.36;100.00
29461;BME280;16428;47.836;35.106;2022-08-21T05:22:41;100841.06;;;22.77;99.94
29461;BME280;16428;47.836;35.106;2022-08-21T05:25:09;100825.28;;;22.85;99.26
29461;BME280;16428;47.836;35.106;2022-08-21T05:27:42;100831.78;;;22.62;99.00
29461;BME280;16428;47.836;35.106;2022-08-21T05:30:11;100836.66;;;22.76;98.53
29461;BME280;16428;47.836;35.106;2022-08-21T05:32:42;100838.16;;;23.06;98.32
29461;BME280;16428;47.836;35.106;2022-08-21T05:35:10;100821.91;;;23.26;97.21
29461;BME280;16428;47.836;35.106;2022-08-21T05:37:39;100827.53;;;23.63;95.19
29461;BME280;16428;47.836;35.106;2022-08-21T05:40:08;100832.06;;;23.79;94.97
29461;BME280;16428;47.836;35.106;2022-08-21T05:42:53;100826.66;;;23.90;94.65
29461;BME280;16428;47.836;35.106;2022-08-21T05:45:26;100835.03;;;24.10;92.91
29461;BME280;16428;47.836;35.106;2022-08-21T05:48:14;100835.75;;;24.27;92.62
29461;BME280;16428;47.836;35.106;2022-08-21T05:50:45;100836.28;;;24.29;92.84
29461;BME280;16428;47.836;35.106;2022-08-21T05:53:17;100840.16;;;24.28;93.04
29461;BME280;16428;47.836;35.106;2022-08-21T05:55:47;100843.81;;;24.44;92.41
29461;BME280;16428;47.836;35.106;2022-08-21T05:58:18;100841.84;;;24.39;94.32
29461;BME280;16428;47.836;35.106;2022-08-21T06:00:48;100843.97;;;24.27;95.61
29461;BME280;16428;47.836;35.106;2022-08-21T06:03:21;100843.72;;;24.29;94.25
29461;BME280;16428;47.836;35.106;2022-08-21T06:05:50;100841.91;;;24.49;92.77
29461;BME280;16428;47.836;35.106;2022-08-21T06:08:21;100847.31;;;24.34;94.53
29461;BME280;16428;47.836;35.106;2022-08-21T06:10:51;100846.00;;;24.42;94.55
29461;BME280;16428;47.836;35.106;2022-08-21T06:13:21;100844.44;;;24.61;92.82
29461;BME280;16428;47.836;35.106;2022-08-21T06:15:50;100847.00;;;24.73;92.52
29461;BME280;16428;47.836;35.106;2022-08-21T06:18:28;100854.22;;;24.94;91.78
29461;BME280;16428;47.836;35.106;2022-08-21T06:20:57;100846.03;;;24.99;91.88
29461;BME280;16428;47.836;35.106;2022-08-21T06:23:28;100843.44;;;24.82;90.91
29461;BME280;16428;47.836;35.106;2022-08-21T06:26:14;100849.84;;;24.98;90.73
29461;BME280;16428;47.836;35.106;2022-08-21T06:28:43;100843.19;;;24.84;93.98
29461;BME280;16428;47.836;35.106;2022-08-21T06:31:15;100842.72;;;24.97;93.83
29461;BME280;16428;47.836;35.106;2022-08-21T06:33:45;100837.81;;;25.04;92.78
29461;BME280;16428;47.836;35.106;2022-08-21T06:36:18;100843.00;;;25.01;93.10
29461;BME280;16428;47.836;35.106;2022-08-21T06:38:48;100838.63;;;25.05;91.57
29461;BME280;16428;47.836;35.106;2022-08-21T06:41:20;100836.41;;;25.07;92.01
29461;BME280;16428;47.836;35.106;2022-08-21T06:43:51;100827.38;;;25.16;92.27
29461;BME280;16428;47.836;35.106;2022-08-21T06:46:20;100832.56;;;25.08;92.50
29461;BME280;16428;47.836;35.106;2022-08-21T06:48:49;100830.13;;;25.16;93.02
29461;BME280;16428;47.836;35.106;2022-08-21T06:51:18;100834.00;;;25.26;92.91
29461;BME280;16428;47.836;35.106;2022-08-21T06:53:48;100827.97;;;25.39;93.54
29461;BME280;16428;47.836;35.106;2022-08-21T06:56:17;100833.47;;;25.39;92.87
29461;BME280;16428;47.836;35.106;2022-08-21T06:58:50;100834.59;;;25.43;93.07
29461;BME280;16428;47.836;35.106;2022-08-21T07:01:21;100840.16;;;25.63;91.71
29461;BME280;16428;47.836;35.106;2022-08-21T07:03:53;100829.09;;;25.53;91.71
29461;BME280;16428;47.836;35.106;2022-08-21T07:06:21;100836.00;;;25.61;93.45
29461;BME280;16428;47.836;35.106;2022-08-21T07:08:50;100845.94;;;25.77;91.35
29461;BME280;16428;47.836;35.106;2022-08-21T07:11:22;100842.09;;;25.78;91.79
29461;BME280;16428;47.836;35.106;2022-08-21T07:13:52;100835.75;;;25.92;92.43
29461;BME280;16428;47.836;35.106;2022-08-21T07:16:22;100842.88;;;25.99;90.91
29461;BME280;16428;47.836;35.106;2022-08-21T07:18:51;100846.19;;;26.01;90.45
29461;BME280;16428;47.836;35.106;2022-08-21T07:21:23;100840.16;;;26.04;90.18
29461;BME280;16428;47.836;35.106;2022-08-21T07:23:53;100832.97;;;26.23;90.19
29461;BME280;16428;47.836;35.106;2022-08-21T07:26:23;100840.41;;;26.27;89.71
29461;BME280;16428;47.836;35.106;2022-08-21T07:28:52;100834.06;;;26.37;87.91
29461;BME280;16428;47.836;35.106;2022-08-21T07:31:24;100835.69;;;26.48;89.12
29461;BME280;16428;47.836;35.106;2022-08-21T07:33:52;100835.69;;;26.48;87.94
29461;BME280;16428;47.836;35.106;2022-08-21T07:36:20;100832.59;;;26.65;87.31
29461;BME280;16428;47.836;35.106;2022-08-21T07:38:51;100842.53;;;26.71;86.85
29461;BME280;16428;47.836;35.106;2022-08-21T07:41:26;100838.59;;;26.87;86.57
29461;BME280;16428;47.836;35.106;2022-08-21T07:43:56;100825.00;;;27.11;86.06
29461;BME280;16428;47.836;35.106;2022-08-21T07:46:28;100825.00;;;27.11;84.91
29461;BME280;16428;47.836;35.106;2022-08-21T07:48:57;100821.13;;;27.17;83.56
29461;BME280;16428;47.836;35.106;2022-08-21T07:51:27;100823.41;;;26.95;84.22
29461;BME280;16428;47.836;35.106;2022-08-21T07:53:57;100818.38;;;27.12;87.30
29461;BME280;16428;47.836;35.106;2022-08-21T07:56:29;100827.66;;;27.26;84.21
29461;BME280;16428;47.836;35.106;2022-08-21T07:58:58;100816.34;;;27.28;82.90
29461;BME280;16428;47.836;35.106;2022-08-21T08:01:27;100820.41;;;27.41;84.05
29461;BME280;16428;47.836;35.106;2022-08-21T08:03:56;100816.84;;;27.35;83.00
29461;BME280;16428;47.836;35.106;2022-08-21T08:06:25;100825.59;;;27.47;81.39
29461;BME280;16428;47.836;35.106;2022-08-21T08:08:54;100818.63;;;27.65;81.68
29461;BME280;16428;47.836;35.106;2022-08-21T08:11:25;100821.06;;;27.66;80.80
29461;BME280;16428;47.836;35.106;2022-08-21T08:13:54;100828.72;;;27.75;80.72
29461;BME280;16428;47.836;35.106;2022-08-21T08:16:26;100826.81;;;27.75;80.51
29461;BME280;16428;47.836;35.106;2022-08-21T08:18:55;100829.06;;;27.68;79.79
29461;BME280;16428;47.836;35.106;2022-08-21T08:21:24;100825.44;;;28.01;78.22
29461;BME280;16428;47.836;35.106;2022-08-21T08:23:53;100834.00;;;28.05;76.71
29461;BME280;16428;47.836;35.106;2022-08-21T08:26:21;100832.72;;;27.92;77.18
29461;BME280;16428;47.836;35.106;2022-08-21T08:28:53;100839.91;;;27.93;77.32
29461;BME280;16428;47.836;35.106;2022-08-21T08:31:22;100831.66;;;27.88;77.63
29461;BME280;16428;47.836;35.106;2022-08-21T08:33:52;100836.09;;;27.84;78.12
29461;BME280;16428;47.836;35.106;2022-08-21T08:36:31;100839.41;;;27.86;77.58
29461;BME280;16428;47.836;35.106;2022-08-21T08:39:05;100840.47;;;27.90;77.67
29461;BME280;16428;47.836;35.106;2022-08-21T08:41:37;100842.69;;;27.88;77.17
29461;BME280;16428;47.836;35.106;2022-08-21T08:44:10;100847.06;;;27.94;78.95
29461;BME280;16428;47.836;35.106;2022-08-21T08:46:43;100848.22;;;27.88;78.21
29461;BME280;16428;47.836;35.106;2022-08-21T08:49:34;100843.84;;;27.82;77.34
29461;BME280;16428;47.836;35.106;2022-08-21T08:54:53;100832.28;;;27.80;76.75
29461;BME280;16428;47.836;35.106;2022-08-21T08:57:24;100835.69;;;28.01;75.79
29461;BME280;16428;47.836;35.106;2022-08-21T08:59:59;100823.06;;;28.24;75.44
29461;BME280;16428;47.836;35.106;2022-08-21T09:02:30;100822.13;;;28.57;73.13
29461;BME280;16428;47.836;35.106;2022-08-21T09:04:59;100815.91;;;28.70;72.59
29461;BME280;16428;47.836;35.106;2022-08-21T09:25:22;100772.41;;;28.76;73.83
29461;BME280;16428;47.836;35.106;2022-08-21T09:27:54;100772.63;;;28.61;75.79
29461;BME280;16428;47.836;35.106;2022-08-21T09:30:31;100756.81;;;28.66;73.15
29461;BME280;16428;47.836;35.106;2022-08-21T09:33:00;100741.28;;;28.70;73.68
29461;BME280;16428;47.836;35.106;2022-08-21T09:35:29;100754.47;;;28.74;73.07
29461;BME280;16428;47.836;35.106;2022-08-21T09:38:02;100743.81;;;28.67;73.28
29461;BME280;16428;47.836;35.106;2022-08-21T09:40:45;100744.97;;;28.85;74.05
29461;BME280;16428;47.836;35.106;2022-08-21T09:43:20;100749.91;;;28.64;77.78
29461;BME280;16428;47.836;35.106;2022-08-21T09:49:04;100741.13;;;29.37;71.71
29461;BME280;16428;47.836;35.106;2022-08-21T09:51:51;100749.25;;;29.98;69.84
29461;BME280;16428;47.836;35.106;2022-08-21T09:54:29;100755.53;;;30.18;67.26
29461;BME280;16428;47.836;35.106;2022-08-21T09:57:23;100757.78;;;30.43;68.42
29461;BME280;16428;47.836;35.106;2022-08-21T10:00:36;100753.69;;;30.82;66.43
29461;BME280;16428;47.836;35.106;2022-08-21T10:03:21;100762.28;;;30.94;65.54
29461;BME280;16428;47.836;35.106;2022-08-21T10:06:06;100764.53;;;30.92;65.47
29461;BME280;16428;47.836;35.106;2022-08-21T10:08:40;100765.19;;;31.25;63.13
29461;BME280;16428;47.836;35.106;2022-08-21T10:11:24;100779.50;;;31.18;63.44
29461;BME280;16428;47.836;35.106;2022-08-21T10:17:04;100765.16;;;31.61;61.19
29461;BME280;16428;47.836;35.106;2022-08-21T10:27:53;100763.38;;;31.87;59.53
29461;BME280;16428;47.836;35.106;2022-08-21T10:33:16;100762.75;;;31.90;60.54
29461;BME280;16428;47.836;35.106;2022-08-21T10:36:16;100755.06;;;32.27;58.31
29461;BME280;16428;47.836;35.106;2022-08-21T10:47:41;100750.38;;;32.93;56.75
29461;BME280;16428;47.836;35.106;2022-08-21T10:50:31;100746.41;;;32.76;57.53
29461;BME280;16428;47.836;35.106;2022-08-21T10:56:05;100745.47;;;32.41;57.05
29461;BME280;16428;47.836;35.106;2022-08-21T10:58:49;100740.91;;;32.45;56.51
29461;BME280;16428;47.836;35.106;2022-08-21T11:04:37;100734.06;;;32.52;55.92
29461;BME280;16428;47.836;35.106;2022-08-21T11:07:38;100731.81;;;32.62;54.17
29461;BME280;16428;47.836;35.106;2022-08-21T11:10:19;100737.00;;;32.38;53.58
29461;BME280;16428;47.836;35.106;2022-08-21T11:13:02;100734.22;;;32.38;55.27
29461;BME280;16428;47.836;35.106;2022-08-21T11:15:41;100723.75;;;32.04;52.33
29461;BME280;16428;47.836;35.106;2022-08-21T11:18:28;100712.53;;;32.17;54.20
29461;BME280;16428;47.836;35.106;2022-08-21T11:24:17;100714.50;;;31.86;52.89
29461;BME280;16428;47.836;35.106;2022-08-21T11:26:51;100716.66;;;31.89;55.47
29461;BME280;16428;47.836;35.106;2022-08-21T11:29:33;100712.06;;;31.93;55.09
29461;BME280;16428;47.836;35.106;2022-08-21T11:33:29;100714.22;;;31.96;52.41
29461;BME280;16428;47.836;35.106;2022-08-21T11:38:31;100712.47;;;32.48;52.46
29461;BME280;16428;47.836;35.106;2022-08-21T11:43:40;100706.25;;;32.03;51.96
29461;BME280;16428;47.836;35.106;2022-08-21T11:46:28;100702.75;;;32.20;52.95
29461;BME280;16428;47.836;35.106;2022-08-21T11:49:25;100709.38;;;32.10;51.97
29461;BME280;16428;47.836;35.106;2022-08-21T11:57:31;100709.19;;;32.55;51.74
29461;BME280;16428;47.836;35.106;2022-08-21T12:00:09;100707.19;;;32.30;53.58
29461;BME280;16428;47.836;35.106;2022-08-21T12:02:49;100708.59;;;32.67;49.91
29461;BME280;16428;47.836;35.106;2022-08-21T12:05:31;100709.22;;;32.64;50.56
29461;BME280;16428;47.836;35.106;2022-08-21T12:08:14;100713.47;;;32.53;51.69
29461;BME280;16428;47.836;35.106;2022-08-21T12:11:43;100718.44;;;32.25;50.70
29461;BME280;16428;47.836;35.106;2022-08-21T12:14:12;100713.94;;;32.06;51.30
29461;BME280;16428;47.836;35.106;2022-08-21T12:16:46;100726.03;;;31.71;51.56
29461;BME280;16428;47.836;35.106;2022-08-21T12:24:49;100722.16;;;31.58;53.43
29461;BME280;16428;47.836;35.106;2022-08-21T12:29:56;100719.00;;;31.51;53.86
29461;BME280;16428;47.836;35.106;2022-08-21T12:32:30;100710.47;;;31.17;53.84
29461;BME280;16428;47.836;35.106;2022-08-21T12:35:26;100720.47;;;31.26;55.83
29461;BME280;16428;47.836;35.106;2022-08-21T12:38:09;100708.22;;;31.72;51.71
29461;BME280;16428;47.836;35.106;2022-08-21T12:43:25;100704.94;;;31.70;53.24
29461;BME280;16428;47.836;35.106;2022-08-21T12:45:55;100711.78;;;31.41;53.35
29461;BME280;16428;47.836;35.106;2022-08-21T12:48:33;100705.63;;;31.53;54.48
29461;BME280;16428;47.836;35.106;2022-08-21T12:53:55;100697.53;;;31.96;51.52
29461;BME280;16428;47.836;35.106;2022-08-21T12:56:28;100707.38;;;32.42;51.48
29461;BME280;16428;47.836;35.106;2022-08-21T12:59:10;100700.28;;;33.10;50.49
29461;BME280;16428;47.836;35.106;2022-08-21T13:01:46;100700.91;;;33.59;50.00
29461;BME280;16428;47.836;35.106;2022-08-21T13:04:19;100700.69;;;33.64;46.43
29461;BME280;16428;47.836;35.106;2022-08-21T13:06:52;100702.63;;;33.89;45.29
29461;BME280;16428;47.836;35.106;2022-08-21T13:09:28;100695.88;;;34.37;46.29
29461;BME280;16428;47.836;35.106;2022-08-21T13:11:59;100700.72;;;34.48;44.16
29461;BME280;16428;47.836;35.106;2022-08-21T13:14:44;100708.88;;;34.53;43.55
29461;BME280;16428;47.836;35.106;2022-08-21T13:17:20;100710.25;;;34.68;44.10
29461;BME280;16428;47.836;35.106;2022-08-21T13:19:56;100708.75;;;34.50;44.21
29461;BME280;16428;47.836;35.106;2022-08-21T13:22:28;100708.81;;;34.91;44.38
29461;BME280;16428;47.836;35.106;2022-08-21T13:25:03;100707.69;;;34.84;42.62
29461;BME280;16428;47.836;35.106;2022-08-21T13:27:38;100707.94;;;34.49;40.99
29461;BME280;16428;47.836;35.106;2022-08-21T13:30:14;100713.84;;;34.69;42.87
29461;BME280;16428;47.836;35.106;2022-08-21T13:32:48;100707.69;;;34.25;44.34
29461;BME280;16428;47.836;35.106;2022-08-21T13:35:30;100707.28;;;33.76;45.19
29461;BME280;16428;47.836;35.106;2022-08-21T13:38:05;100710.41;;;33.23;46.18
29461;BME280;16428;47.836;35.106;2022-08-21T13:40:54;100715.28;;;33.78;45.79
29461;BME280;16428;47.836;35.106;2022-08-21T13:43:35;100711.19;;;33.75;46.28
29461;BME280;16428;47.836;35.106;2022-08-21T13:46:10;100706.34;;;33.12;45.14
29461;BME280;16428;47.836;35.106;2022-08-21T13:48:43;100705.78;;;32.49;47.15
29461;BME280;16428;47.836;35.106;2022-08-21T13:51:12;100706.50;;;32.24;48.49
29461;BME280;16428;47.836;35.106;2022-08-21T13:56:43;100699.94;;;32.85;50.73
29461;BME280;16428;47.836;35.106;2022-08-21T13:59:23;100707.50;;;32.94;50.51
29461;BME280;16428;47.836;35.106;2022-08-21T14:02:42;100708.63;;;32.75;52.77
29461;BME280;16428;47.836;35.106;2022-08-21T14:04:58;100702.91;;;32.80;55.82
29461;BME280;16428;47.836;35.106;2022-08-21T14:07:39;100705.94;;;32.53;55.74
29461;BME280;16428;47.836;35.106;2022-08-21T14:10:21;100687.91;;;32.42;51.07
29461;BME280;16428;47.836;35.106;2022-08-21T14:12:59;100688.22;;;32.23;54.64
29461;BME280;16428;47.836;35.106;2022-08-21T14:15:33;100683.53;;;32.10;54.56
29461;BME280;16428;47.836;35.106;2022-08-21T14:18:17;100680.59;;;31.67;54.25
29461;BME280;16428;47.836;35.106;2022-08-21T14:20:47;100677.03;;;31.75;55.93
29461;BME280;16428;47.836;35.106;2022-08-21T14:23:25;100671.06;;;31.59;62.56
29461;BME280;16428;47.836;35.106;2022-08-21T14:25:59;100666.06;;;31.47;62.33
29461;BME280;16428;47.836;35.106;2022-08-21T14:28:47;100669.91;;;31.29;63.94
29461;BME280;16428;47.836;35.106;2022-08-21T14:31:20;100668.38;;;31.01;59.21
29461;BME280;16428;47.836;35.106;2022-08-21T14:33:50;100665.06;;;30.99;62.99